OAL929 FIMP-FMCZ
Flight info
| Callsign | OAL929 |
|---|---|
| Flight time | N/A |
| Altitude | 38000 |
| Route | NIBIS DCT APLEM UG661 ANDIL DCT SOAVI |
| Aircraft | B738/M-V/N |
Departure
| Time | 2026-05-08 07:03 |
|---|---|
| Airport | Sir Seewoosagur Ramgoolam International Airport (FIMP) |
Arrival
| Time | N/A |
|---|---|
| Airport | Dzaoudzi Pamandzi International Airport (FMCZ) |
| Time | Latitude | Longitude | Altitude | Speed | Heading |
|---|---|---|---|---|---|
| 2026-05-08 06:56 | -20.42496 | 57.67263 | 182 ft | 0 kts | 117° |
| 2026-05-08 07:02 | -20.42522 | 57.67316 | 180 ft | 38 kts | 117° |
| 2026-05-08 07:02 | -20.42781 | 57.67853 | 163 ft | 123 kts | 117° |
| 2026-05-08 07:03 | -20.43277 | 57.68876 | 366 ft | 172 kts | 116° |
| 2026-05-08 07:03 | -20.43791 | 57.70044 | 1362 ft | 179 kts | 104° |
| 2026-05-08 07:03 | -20.43609 | 57.71287 | 2490 ft | 188 kts | 63° |
| 2026-05-08 07:03 | -20.42581 | 57.72311 | 2852 ft | 222 kts | 32° |
| 2026-05-08 07:04 | -20.40993 | 57.72680 | 3103 ft | 251 kts | 359° |
| 2026-05-08 07:04 | -20.39277 | 57.72025 | 3435 ft | 277 kts | 325° |
| 2026-05-08 07:04 | -20.37941 | 57.70493 | 4140 ft | 287 kts | 307° |
| 2026-05-08 07:04 | -20.36827 | 57.68724 | 5038 ft | 288 kts | 303° |
| 2026-05-08 07:05 | -20.35762 | 57.66903 | 5875 ft | 291 kts | 302° |
| 2026-05-08 07:05 | -20.34684 | 57.65051 | 6697 ft | 295 kts | 302° |
| 2026-05-08 07:05 | -20.33586 | 57.63187 | 7472 ft | 299 kts | 302° |
| 2026-05-08 07:05 | -20.32465 | 57.61311 | 8248 ft | 301 kts | 302° |
| 2026-05-08 07:06 | -20.31338 | 57.59448 | 8990 ft | 305 kts | 303° |
| 2026-05-08 07:06 | -20.30178 | 57.57549 | 9743 ft | 308 kts | 303° |
| 2026-05-08 07:06 | -20.29001 | 57.55636 | 10465 ft | 311 kts | 303° |
| 2026-05-08 07:06 | -20.27775 | 57.53650 | 10675 ft | 333 kts | 303° |
| 2026-05-08 07:07 | -20.26457 | 57.51525 | 10850 ft | 354 kts | 303° |
| 2026-05-08 07:07 | -20.25061 | 57.49280 | 10977 ft | 374 kts | 303° |
| 2026-05-08 07:07 | -20.23591 | 57.46919 | 11202 ft | 389 kts | 303° |
| 2026-05-08 07:07 | -20.22086 | 57.44508 | 11705 ft | 393 kts | 303° |
| 2026-05-08 07:08 | -20.20567 | 57.42078 | 12311 ft | 394 kts | 303° |
| 2026-05-08 07:08 | -20.19042 | 57.39641 | 12889 ft | 397 kts | 303° |
| 2026-05-08 07:08 | -20.17502 | 57.37181 | 13425 ft | 401 kts | 303° |
| 2026-05-08 07:08 | -20.16473 | 57.35536 | 13779 ft | 403 kts | 304° |
| 2026-05-08 07:09 | -20.14912 | 57.33045 | 14279 ft | 406 kts | 304° |
| 2026-05-08 07:09 | -20.12833 | 57.29727 | 14951 ft | 408 kts | 304° |
| 2026-05-08 07:09 | -20.11256 | 57.27212 | 15456 ft | 410 kts | 304° |
| 2026-05-08 07:09 | -20.09666 | 57.24676 | 15922 ft | 413 kts | 304° |
| 2026-05-08 07:10 | -20.08070 | 57.22132 | 16402 ft | 415 kts | 304° |
| 2026-05-08 07:10 | -20.06459 | 57.19565 | 16887 ft | 418 kts | 304° |
| 2026-05-08 07:10 | -20.04842 | 57.16990 | 17361 ft | 420 kts | 304° |
| 2026-05-08 07:10 | -20.03761 | 57.15269 | 17691 ft | 421 kts | 304° |
| 2026-05-08 07:11 | -20.02130 | 57.12672 | 18160 ft | 423 kts | 304° |
| 2026-05-08 07:11 | -20.00491 | 57.10065 | 18583 ft | 426 kts | 304° |
| 2026-05-08 07:11 | -19.98842 | 57.07442 | 18977 ft | 427 kts | 304° |
| 2026-05-08 07:11 | -19.97185 | 57.04808 | 19348 ft | 430 kts | 304° |
| 2026-05-08 07:12 | -19.95518 | 57.02159 | 19714 ft | 432 kts | 304° |
| 2026-05-08 07:12 | -19.93840 | 56.99494 | 20068 ft | 435 kts | 304° |
| 2026-05-08 07:12 | -19.92154 | 56.96817 | 20413 ft | 437 kts | 304° |
| 2026-05-08 07:12 | -19.90459 | 56.94127 | 20749 ft | 439 kts | 304° |
| 2026-05-08 07:13 | -19.88754 | 56.91423 | 21077 ft | 442 kts | 304° |
| 2026-05-08 07:13 | -19.87041 | 56.88707 | 21393 ft | 444 kts | 304° |
| 2026-05-08 07:13 | -19.85316 | 56.85973 | 21691 ft | 446 kts | 304° |
| 2026-05-08 07:13 | -19.83582 | 56.83227 | 22000 ft | 449 kts | 304° |
| 2026-05-08 07:14 | -19.81837 | 56.80465 | 22319 ft | 450 kts | 304° |
| 2026-05-08 07:14 | -19.80113 | 56.77736 | 22605 ft | 452 kts | 304° |
| 2026-05-08 07:14 | -19.78357 | 56.74958 | 22861 ft | 455 kts | 304° |
| 2026-05-08 07:14 | -19.76589 | 56.72163 | 23109 ft | 457 kts | 303° |
| 2026-05-08 07:15 | -19.74813 | 56.69356 | 23372 ft | 459 kts | 303° |
| 2026-05-08 07:15 | -19.73027 | 56.66535 | 23624 ft | 461 kts | 303° |
| 2026-05-08 07:15 | -19.71237 | 56.63708 | 23850 ft | 462 kts | 303° |
| 2026-05-08 07:15 | -19.69438 | 56.60870 | 24075 ft | 463 kts | 303° |
| 2026-05-08 07:16 | -19.67640 | 56.58035 | 24320 ft | 464 kts | 303° |
| 2026-05-08 07:16 | -19.65833 | 56.55185 | 24562 ft | 464 kts | 303° |
| 2026-05-08 07:16 | -19.64033 | 56.52348 | 24784 ft | 465 kts | 303° |
| 2026-05-08 07:16 | -19.62218 | 56.49490 | 24993 ft | 466 kts | 303° |
| 2026-05-08 07:17 | -19.60417 | 56.46654 | 25216 ft | 467 kts | 303° |
| 2026-05-08 07:17 | -19.58607 | 56.43806 | 25421 ft | 468 kts | 303° |
| 2026-05-08 07:17 | -19.56800 | 56.40964 | 25626 ft | 469 kts | 303° |
| 2026-05-08 07:17 | -19.54951 | 56.38056 | 25838 ft | 470 kts | 303° |
| 2026-05-08 07:18 | -19.53147 | 56.35221 | 26038 ft | 470 kts | 303° |
| 2026-05-08 07:18 | -19.51310 | 56.32336 | 26244 ft | 471 kts | 303° |
| 2026-05-08 07:18 | -19.49472 | 56.29451 | 26433 ft | 472 kts | 303° |
| 2026-05-08 07:18 | -19.47621 | 56.26546 | 26614 ft | 473 kts | 303° |
| 2026-05-08 07:19 | -19.45796 | 56.23683 | 26818 ft | 474 kts | 303° |
| 2026-05-08 07:19 | -19.43948 | 56.20785 | 27014 ft | 475 kts | 303° |
| 2026-05-08 07:19 | -19.42073 | 56.17847 | 27202 ft | 476 kts | 303° |
| 2026-05-08 07:19 | -19.40250 | 56.14992 | 27375 ft | 476 kts | 303° |
| 2026-05-08 07:20 | -19.38393 | 56.12086 | 27554 ft | 477 kts | 303° |
| 2026-05-08 07:20 | -19.36510 | 56.09139 | 27731 ft | 478 kts | 303° |
| 2026-05-08 07:20 | -19.34648 | 56.06226 | 27904 ft | 479 kts | 303° |
| 2026-05-08 07:20 | -19.32782 | 56.03311 | 28072 ft | 480 kts | 303° |
| 2026-05-08 07:21 | -19.30916 | 56.00397 | 28241 ft | 480 kts | 303° |
| 2026-05-08 07:21 | -19.29040 | 55.97466 | 28414 ft | 481 kts | 303° |
| 2026-05-08 07:21 | -19.27172 | 55.94550 | 28648 ft | 480 kts | 303° |
| 2026-05-08 07:21 | -19.25293 | 55.91618 | 28935 ft | 478 kts | 303° |
| 2026-05-08 07:22 | -19.23437 | 55.88724 | 29240 ft | 476 kts | 303° |
| 2026-05-08 07:22 | -19.21572 | 55.85817 | 29522 ft | 474 kts | 303° |
| 2026-05-08 07:22 | -19.19725 | 55.82940 | 29775 ft | 474 kts | 303° |
| 2026-05-08 07:22 | -19.17884 | 55.80072 | 30034 ft | 473 kts | 303° |
| 2026-05-08 07:23 | -19.16043 | 55.77208 | 30297 ft | 471 kts | 303° |
| 2026-05-08 07:23 | -19.14200 | 55.74342 | 30551 ft | 470 kts | 303° |
| 2026-05-08 07:23 | -19.12374 | 55.71502 | 30798 ft | 469 kts | 303° |
| 2026-05-08 07:23 | -19.10541 | 55.68653 | 31006 ft | 468 kts | 303° |
| 2026-05-08 07:24 | -19.08712 | 55.65809 | 31206 ft | 468 kts | 303° |
| 2026-05-08 07:24 | -19.06879 | 55.62962 | 31453 ft | 467 kts | 303° |
| 2026-05-08 07:24 | -19.05055 | 55.60131 | 31731 ft | 465 kts | 303° |
| 2026-05-08 07:24 | -19.03234 | 55.57307 | 32018 ft | 463 kts | 303° |
| 2026-05-08 07:25 | -19.01424 | 55.54500 | 32240 ft | 463 kts | 303° |
| 2026-05-08 07:25 | -18.99631 | 55.51719 | 32434 ft | 464 kts | 303° |
| 2026-05-08 07:25 | -18.96002 | 55.46097 | 32919 ft | 462 kts | 303° |
| 2026-05-08 07:26 | -18.94200 | 55.43307 | 33191 ft | 460 kts | 303° |
| 2026-05-08 07:26 | -18.92391 | 55.40509 | 33445 ft | 459 kts | 303° |
| 2026-05-08 07:26 | -18.90593 | 55.37728 | 33684 ft | 459 kts | 303° |
| 2026-05-08 07:26 | -18.88797 | 55.34950 | 33917 ft | 459 kts | 303° |
| 2026-05-08 07:27 | -18.87002 | 55.32176 | 34153 ft | 458 kts | 303° |
| 2026-05-08 07:27 | -18.85213 | 55.29413 | 34373 ft | 457 kts | 303° |
| 2026-05-08 07:27 | -18.83425 | 55.26652 | 34567 ft | 456 kts | 303° |
| 2026-05-08 07:27 | -18.81609 | 55.23850 | 34738 ft | 457 kts | 303° |
| 2026-05-08 07:28 | -18.79830 | 55.21106 | 34919 ft | 457 kts | 303° |
| 2026-05-08 07:28 | -18.78038 | 55.18343 | 35139 ft | 456 kts | 303° |
| 2026-05-08 07:28 | -18.76254 | 55.15593 | 35350 ft | 455 kts | 303° |
| 2026-05-08 07:28 | -18.74471 | 55.12847 | 35532 ft | 455 kts | 303° |
| 2026-05-08 07:29 | -18.72687 | 55.10098 | 35685 ft | 455 kts | 303° |
| 2026-05-08 07:29 | -18.70903 | 55.07353 | 35866 ft | 454 kts | 303° |
| 2026-05-08 07:29 | -18.69096 | 55.04573 | 36080 ft | 453 kts | 303° |
| 2026-05-08 07:29 | -18.67318 | 55.01837 | 36258 ft | 453 kts | 303° |
| 2026-05-08 07:30 | -18.65537 | 54.99099 | 36398 ft | 453 kts | 303° |
| 2026-05-08 07:30 | -18.63756 | 54.96363 | 36549 ft | 454 kts | 303° |
| 2026-05-08 07:30 | -18.61979 | 54.93635 | 36754 ft | 452 kts | 303° |
| 2026-05-08 07:30 | -18.60205 | 54.90910 | 36963 ft | 451 kts | 303° |
| 2026-05-08 07:31 | -18.58422 | 54.88174 | 37093 ft | 452 kts | 303° |
| 2026-05-08 07:31 | -18.54857 | 54.82703 | 37327 ft | 453 kts | 303° |
| 2026-05-08 07:31 | -18.53094 | 54.80001 | 37520 ft | 452 kts | 303° |
| 2026-05-08 07:32 | -18.51324 | 54.77290 | 37753 ft | 450 kts | 303° |
| 2026-05-08 07:32 | -18.49556 | 54.74582 | 37891 ft | 450 kts | 303° |
| 2026-05-08 07:32 | -18.47752 | 54.71829 | 37973 ft | 450 kts | 303° |
| 2026-05-08 07:32 | -18.45972 | 54.69177 | 38086 ft | 448 kts | 304° |
| 2026-05-08 07:33 | -18.44156 | 54.66505 | 38080 ft | 451 kts | 304° |
| 2026-05-08 07:33 | -18.40481 | 54.61117 | 38103 ft | 452 kts | 304° |
| 2026-05-08 07:34 | -18.36822 | 54.55737 | 38103 ft | 454 kts | 303° |
| 2026-05-08 07:34 | -18.33119 | 54.50282 | 38084 ft | 456 kts | 303° |
| 2026-05-08 07:35 | -18.29437 | 54.44859 | 38067 ft | 457 kts | 303° |
| 2026-05-08 07:35 | -18.25744 | 54.39424 | 38069 ft | 456 kts | 304° |
| 2026-05-08 07:36 | -18.22078 | 54.34037 | 38086 ft | 455 kts | 304° |
| 2026-05-08 07:36 | -18.18392 | 54.28620 | 38089 ft | 453 kts | 304° |
| 2026-05-08 07:37 | -18.14724 | 54.23237 | 38069 ft | 452 kts | 304° |
| 2026-05-08 07:37 | -18.11068 | 54.17875 | 38060 ft | 451 kts | 304° |
| 2026-05-08 07:38 | -18.07434 | 54.12550 | 38079 ft | 449 kts | 304° |
| 2026-05-08 07:38 | -18.03806 | 54.07237 | 38087 ft | 447 kts | 304° |
| 2026-05-08 07:39 | -18.00189 | 54.01944 | 38069 ft | 446 kts | 304° |
| 2026-05-08 07:39 | -17.96577 | 53.96661 | 38059 ft | 446 kts | 304° |
| 2026-05-08 07:40 | -17.92951 | 53.91359 | 38078 ft | 445 kts | 304° |
| 2026-05-08 07:40 | -17.89340 | 53.86083 | 38085 ft | 445 kts | 304° |
| 2026-05-08 07:41 | -17.85735 | 53.80823 | 38061 ft | 446 kts | 304° |
| 2026-05-08 07:41 | -17.82104 | 53.75528 | 38059 ft | 447 kts | 304° |
| 2026-05-08 07:42 | -17.78460 | 53.70216 | 38082 ft | 448 kts | 304° |
| 2026-05-08 07:42 | -17.74814 | 53.64907 | 38077 ft | 448 kts | 304° |
| 2026-05-08 07:43 | -17.71187 | 53.59630 | 38054 ft | 450 kts | 304° |
| 2026-05-08 07:43 | -17.67514 | 53.54292 | 38061 ft | 450 kts | 304° |
| 2026-05-08 07:44 | -17.63850 | 53.48971 | 38088 ft | 450 kts | 304° |
| 2026-05-08 07:44 | -17.60179 | 53.43643 | 38076 ft | 451 kts | 304° |
| 2026-05-08 07:45 | -17.56529 | 53.38349 | 38049 ft | 451 kts | 304° |
| 2026-05-08 07:45 | -17.52854 | 53.33024 | 38062 ft | 451 kts | 304° |
| 2026-05-08 07:46 | -17.49175 | 53.27699 | 38089 ft | 450 kts | 304° |
| 2026-05-08 07:46 | -17.45499 | 53.22381 | 38071 ft | 450 kts | 304° |
| 2026-05-08 07:47 | -17.41827 | 53.17073 | 38035 ft | 451 kts | 304° |
| 2026-05-08 07:47 | -17.38158 | 53.11772 | 38047 ft | 450 kts | 304° |
| 2026-05-08 07:48 | -17.34512 | 53.06510 | 38090 ft | 448 kts | 304° |
| 2026-05-08 07:48 | -17.30844 | 53.01220 | 38099 ft | 448 kts | 304° |
| 2026-05-08 07:49 | -17.27179 | 52.95938 | 38056 ft | 448 kts | 304° |
| 2026-05-08 07:49 | -17.23518 | 52.90666 | 38031 ft | 448 kts | 304° |
| 2026-05-08 07:50 | -17.19874 | 52.85421 | 38024 ft | 448 kts | 304° |
| 2026-05-08 07:50 | -17.16246 | 52.80205 | 38030 ft | 448 kts | 304° |
| 2026-05-08 07:51 | -17.12587 | 52.74948 | 38041 ft | 448 kts | 304° |
| 2026-05-08 07:51 | -17.08927 | 52.69694 | 38046 ft | 447 kts | 304° |
| 2026-05-08 07:52 | -17.05290 | 52.64477 | 38052 ft | 447 kts | 304° |
| 2026-05-08 07:52 | -17.01625 | 52.59222 | 38064 ft | 447 kts | 304° |
| 2026-05-08 07:53 | -16.97962 | 52.53974 | 38071 ft | 447 kts | 304° |
| 2026-05-08 07:53 | -16.94295 | 52.48726 | 38060 ft | 447 kts | 304° |
| 2026-05-08 07:54 | -16.90627 | 52.43478 | 38050 ft | 447 kts | 304° |
| 2026-05-08 07:54 | -16.86955 | 52.38229 | 38046 ft | 448 kts | 304° |
| 2026-05-08 07:55 | -16.83307 | 52.33022 | 38044 ft | 447 kts | 304° |
| 2026-05-08 07:55 | -16.79634 | 52.27785 | 38067 ft | 447 kts | 304° |
| 2026-05-08 07:56 | -16.75954 | 52.22542 | 38059 ft | 447 kts | 304° |
| 2026-05-08 07:56 | -16.72277 | 52.17308 | 38039 ft | 447 kts | 304° |
| 2026-05-08 07:57 | -16.68599 | 52.12074 | 38043 ft | 447 kts | 304° |
| 2026-05-08 07:57 | -16.64921 | 52.06842 | 38061 ft | 447 kts | 304° |
| 2026-05-08 07:58 | -16.61243 | 52.01616 | 38057 ft | 447 kts | 304° |
| 2026-05-08 07:58 | -16.57583 | 51.96418 | 38041 ft | 447 kts | 304° |
| 2026-05-08 07:59 | -16.53903 | 51.91196 | 38042 ft | 447 kts | 304° |
| 2026-05-08 07:59 | -16.50224 | 51.85978 | 38062 ft | 447 kts | 304° |
| 2026-05-08 08:00 | -16.46536 | 51.80752 | 38067 ft | 447 kts | 305° |
| 2026-05-08 08:00 | -16.42852 | 51.75537 | 38043 ft | 447 kts | 305° |
| 2026-05-08 08:01 | -16.39164 | 51.70318 | 38041 ft | 447 kts | 305° |
| 2026-05-08 08:01 | -16.35472 | 51.65099 | 38059 ft | 447 kts | 305° |
| 2026-05-08 08:02 | -16.31778 | 51.59880 | 38039 ft | 448 kts | 305° |
| 2026-05-08 08:02 | -16.28080 | 51.54659 | 38052 ft | 448 kts | 305° |
| 2026-05-08 08:03 | -16.24373 | 51.49429 | 38047 ft | 449 kts | 305° |
| 2026-05-08 08:03 | -16.20667 | 51.44204 | 38044 ft | 449 kts | 305° |
| 2026-05-08 08:04 | -16.16951 | 51.38968 | 38052 ft | 450 kts | 305° |
| 2026-05-08 08:04 | -16.13258 | 51.33770 | 38041 ft | 450 kts | 305° |
| 2026-05-08 08:05 | -16.09535 | 51.28533 | 38063 ft | 450 kts | 305° |
| 2026-05-08 08:05 | -16.05809 | 51.23295 | 38037 ft | 451 kts | 305° |
| 2026-05-08 08:06 | -16.02078 | 51.18055 | 38059 ft | 451 kts | 305° |
| 2026-05-08 08:06 | -15.98342 | 51.12810 | 38038 ft | 452 kts | 305° |
| 2026-05-08 08:07 | -15.94606 | 51.07569 | 38060 ft | 451 kts | 305° |
| 2026-05-08 08:07 | -15.90859 | 51.02317 | 38045 ft | 452 kts | 305° |
| 2026-05-08 08:08 | -15.87119 | 50.97079 | 38059 ft | 452 kts | 305° |
| 2026-05-08 08:08 | -15.83372 | 50.91834 | 38056 ft | 452 kts | 305° |
| 2026-05-08 08:09 | -15.79651 | 50.86630 | 38052 ft | 452 kts | 305° |
| 2026-05-08 08:09 | -15.75902 | 50.81389 | 38067 ft | 452 kts | 305° |
| 2026-05-08 08:10 | -15.72146 | 50.76143 | 38053 ft | 452 kts | 305° |
| 2026-05-08 08:10 | -15.68395 | 50.70907 | 38037 ft | 453 kts | 305° |
| 2026-05-08 08:11 | -15.64639 | 50.65667 | 38062 ft | 452 kts | 305° |
| 2026-05-08 08:11 | -15.60882 | 50.60431 | 38067 ft | 452 kts | 305° |
| 2026-05-08 08:12 | -15.57122 | 50.55195 | 38044 ft | 453 kts | 305° |
| 2026-05-08 08:12 | -15.53360 | 50.49958 | 38063 ft | 453 kts | 305° |
| 2026-05-08 08:13 | -15.49622 | 50.44759 | 38069 ft | 452 kts | 305° |
| 2026-05-08 08:13 | -15.45861 | 50.39530 | 38059 ft | 453 kts | 305° |
| 2026-05-08 08:14 | -15.42095 | 50.34299 | 38077 ft | 452 kts | 305° |
| 2026-05-08 08:14 | -15.38334 | 50.29078 | 38062 ft | 452 kts | 305° |
| 2026-05-08 08:15 | -15.34567 | 50.23853 | 38074 ft | 452 kts | 305° |
| 2026-05-08 08:15 | -15.30800 | 50.18631 | 38069 ft | 453 kts | 305° |
| 2026-05-08 08:16 | -15.27662 | 50.14284 | 38070 ft | 453 kts | 305° |
| 2026-05-08 08:16 | -15.23897 | 50.09071 | 38091 ft | 453 kts | 305° |
| 2026-05-08 08:17 | -15.20125 | 50.03853 | 38073 ft | 454 kts | 305° |
| 2026-05-08 08:17 | -15.16339 | 49.98617 | 38068 ft | 454 kts | 305° |
| 2026-05-08 08:18 | -15.11940 | 49.92539 | 38082 ft | 454 kts | 305° |
| 2026-05-08 08:18 | -15.08779 | 49.88173 | 38063 ft | 455 kts | 305° |
| 2026-05-08 08:19 | -15.04997 | 49.82954 | 38082 ft | 454 kts | 305° |